Old Mastic, New York
Current Conditions -  °F | °C
As of 4:56 AM on Wednesday 22 Oct 2014 (Local Time) from KHWV Reporting Station
Broken Clouds Broken Clouds  
Wind Chill: 57°   Ceiling: 2200
Heat Index: 57°   Visibility: 10mi
Dew Point: 54°   Wind: 7mph
Humidity: 89%   Direction: 40°NE
Pressure: 29.87"   Gusts: NA
Location:  40.7682°N, 72.8409°W
Report Text: KHWV 220856Z AUTO 04006KT 10SM BKN022 14/12 A2987 RMK AO2 SLP116 T01390122 56005 TSNO
Loading
Personal Weather Stations






























Interactive Weather Map
Tropical Storm Tracking
New forecast layout! Learn more

10-Day Weather Forecast

Advertisements
Track Severe Weather on mobile